Time;durP1;ratioP1;P1;durP2;ratioP2;P2;SDS_P1;SDS_P2;PMS_P1;PMS_P2;Temp;Humidity;BMP_temperature;BMP_pressure;BME280_temperature;BME280_humidity;BME280_pressure;Samples;Min_cycle;Max_cycle;Signal;HPM_P1;HPM_P2
2022/10/10 00:00:52;;;;;;;2.65;1.40;;;13.70;49.60;;;;;;4999994;28;20053;-41
2022/10/10 00:03:19;;;;;;;1.95;1.30;;;13.60;49.60;;;;;;5000580;28;20046;-44
2022/10/10 00:05:47;;;;;;;2.03;1.40;;;13.60;49.70;;;;;;4999732;28;20061;-42
2022/10/10 00:08:14;;;;;;;2.67;1.30;;;13.60;49.70;;;;;;5000864;28;20053;-40
2022/10/10 00:10:41;;;;;;;4.50;1.50;;;13.60;49.70;;;;;;4998538;28;20051;-40
2022/10/10 00:13:09;;;;;;;3.72;1.33;;;13.60;49.80;;;;;;5003518;28;20058;-41
2022/10/10 00:15:37;;;;;;;2.92;1.70;;;13.60;49.80;;;;;;4998244;28;20056;-42
2022/10/10 00:18:04;;;;;;;5.20;2.13;;;13.60;49.90;;;;;;5002163;28;20061;-40
2022/10/10 00:20:32;;;;;;;4.05;1.88;;;13.50;49.90;;;;;;4998435;28;20490;-44
2022/10/10 00:22:59;;;;;;;5.63;1.50;;;13.50;50.00;;;;;;5003518;28;20510;-41
2022/10/10 00:25:26;;;;;;;4.70;1.80;;;13.50;50.00;;;;;;5001919;28;20053;-41
2022/10/10 00:27:54;;;;;;;2.58;1.60;;;13.50;50.00;;;;;;5001405;28;20056;-43
2022/10/10 00:30:21;;;;;;;5.35;1.80;;;13.50;50.10;;;;;;4998067;28;20062;-40
2022/10/10 00:32:50;;;;;;;3.25;1.33;;;13.40;50.00;;;;;;5001099;28;20512;-41
2022/10/10 00:35:17;;;;;;;2.67;1.40;;;13.50;50.10;;;;;;5002084;28;20061;-41
2022/10/10 00:37:44;;;;;;;4.78;1.67;;;13.40;50.00;;;;;;5001634;28;20050;-44
2022/10/10 00:40:12;;;;;;;3.65;1.80;;;13.40;50.00;;;;;;5001543;28;20520;-50
2022/10/10 00:42:39;;;;;;;4.00;1.85;;;13.40;50.10;;;;;;5000772;28;20049;-41
2022/10/10 00:45:31;;;;;;;3.75;1.60;;;13.40;50.10;;;;;;5000346;28;20050;-40
2022/10/10 00:48:04;;;;;;;2.90;1.48;;;13.30;50.20;;;;;;5001248;28;20049;-41
2022/10/10 00:50:35;;;;;;;2.05;1.38;;;13.30;50.10;;;;;;5000394;28;20050;-41
2022/10/10 00:53:05;;;;;;;3.25;1.40;;;13.30;50.20;;;;;;5002497;28;20065;-40
2022/10/10 00:55:32;;;;;;;2.85;1.52;;;13.20;50.20;;;;;;5001974;28;20054;-42
2022/10/10 00:57:59;;;;;;;3.47;1.63;;;13.20;50.30;;;;;;5000997;28;20054;-43
2022/10/10 01:00:27;;;;;;;4.22;1.60;;;13.20;50.30;;;;;;4998142;28;20061;-41
2022/10/10 01:02:54;;;;;;;2.88;1.58;;;13.20;50.40;;;;;;5000510;28;20053;-40
2022/10/10 01:05:23;;;;;;;4.47;1.90;;;13.20;50.50;;;;;;5004659;28;20541;-40
2022/10/10 01:07:50;;;;;;;2.72;1.60;;;13.10;50.50;;;;;;5005817;28;20054;-43
2022/10/10 01:10:21;;;;;;;2.35;1.58;;;13.10;50.50;;;;;;5004247;28;20057;-42
2022/10/10 01:13:01;;;;;;;4.53;1.50;;;13.10;50.60;;;;;;5006530;28;20065;-43
2022/10/10 01:15:38;;;;;;;3.28;1.30;;;13.10;50.60;;;;;;5001924;28;20064;-43
2022/10/10 01:18:14;;;;;;;2.75;1.42;;;13.10;50.60;;;;;;5005059;28;20056;-43
2022/10/10 01:21:03;;;;;;;3.90;1.50;;;13.10;50.70;;;;;;5001464;28;20057;-43
2022/10/10 01:23:50;;;;;;;2.75;1.50;;;13.00;50.70;;;;;;5000480;28;20050;-45
2022/10/10 01:26:37;;;;;;;3.92;1.67;;;13.00;50.70;;;;;;5006220;28;20061;-43
2022/10/10 01:29:13;;;;;;;3.13;1.50;;;13.00;50.80;;;;;;5002561;28;20050;-42
2022/10/10 01:31:45;;;;;;;4.68;1.77;;;13.00;50.90;;;;;;5000705;28;20470;-42
2022/10/10 01:34:22;;;;;;;2.97;1.48;;;13.00;50.90;;;;;;5004414;28;20058;-40
2022/10/10 01:36:57;;;;;;;4.53;1.45;;;13.00;50.90;;;;;;5001662;28;20061;-43
2022/10/10 01:39:31;;;;;;;3.38;1.52;;;13.00;51.00;;;;;;5000225;28;20422;-41
2022/10/10 01:42:04;;;;;;;3.88;1.50;;;13.00;51.10;;;;;;5002820;28;20061;-41
2022/10/10 01:44:33;;;;;;;2.77;1.70;;;12.90;51.00;;;;;;5006220;28;20505;-40
2022/10/10 01:47:00;;;;;;;2.78;1.52;;;13.00;51.00;;;;;;5003892;28;20057;-42
2022/10/10 01:49:31;;;;;;;3.13;1.38;;;12.90;51.00;;;;;;5004435;28;20062;-44
2022/10/10 01:52:09;;;;;;;2.35;1.25;;;12.90;51.10;;;;;;5003292;28;20053;-43
2022/10/10 01:54:46;;;;;;;2.63;1.50;;;12.90;51.10;;;;;;5005266;28;20050;-41
2022/10/10 01:57:20;;;;;;;2.97;1.55;;;12.90;51.10;;;;;;5003946;28;20133;-42
2022/10/10 02:00:02;;;;;;;2.63;1.45;;;12.90;51.10;;;;;;5004502;28;20050;-41
2022/10/10 02:02:38;;;;;;;4.40;1.30;;;12.90;51.20;;;;;;5002265;28;20383;-42
2022/10/10 02:05:10;;;;;;;2.03;1.45;;;12.90;51.20;;;;;;5004503;28;20509;-48
2022/10/10 02:07:43;;;;;;;4.32;1.50;;;12.90;51.20;;;;;;5005643;28;20509;-47
2022/10/10 02:10:14;;;;;;;4.07;1.63;;;12.90;51.30;;;;;;5004645;28;20502;-43
2022/10/10 02:12:41;;;;;;;3.75;1.83;;;12.90;51.30;;;;;;5003572;28;20513;-43
2022/10/10 02:15:14;;;;;;;2.67;1.55;;;12.90;51.30;;;;;;5001566;28;20054;-43
2022/10/10 02:17:45;;;;;;;6.18;1.40;;;12.80;51.40;;;;;;5001255;28;20778;-42
2022/10/10 02:20:16;;;;;;;3.00;1.60;;;12.80;51.40;;;;;;4995102;28;20062;-43
2022/10/10 02:22:45;;;;;;;5.38;1.55;;;12.80;51.40;;;;;;4996775;28;20064;-42
2022/10/10 02:25:13;;;;;;;3.08;1.75;;;12.80;51.50;;;;;;4996997;28;20057;-47
2022/10/10 02:27:46;;;;;;;1.73;1.40;;;12.80;51.50;;;;;;5006249;28;20058;-50
2022/10/10 02:30:15;;;;;;;3.53;1.70;;;12.80;51.50;;;;;;5003780;28;20489;-51
2022/10/10 02:32:47;;;;;;;2.53;1.58;;;12.70;51.50;;;;;;5006223;28;20054;-50
2022/10/10 02:35:18;;;;;;;2.63;1.50;;;12.70;51.50;;;;;;5006777;28;20073;-46
2022/10/10 02:37:48;;;;;;;3.10;1.50;;;12.70;51.60;;;;;;5006808;28;20057;-50
2022/10/10 02:40:20;;;;;;;3.33;1.58;;;12.70;51.60;;;;;;5007964;28;20064;-48
2022/10/10 02:42:49;;;;;;;4.13;1.70;;;12.70;51.70;;;;;;5007709;28;20053;-49
2022/10/10 02:45:19;;;;;;;2.80;1.55;;;12.70;51.70;;;;;;5005303;28;20069;-50
2022/10/10 02:47:47;;;;;;;2.50;1.65;;;12.70;51.70;;;;;;5007192;28;20401;-49
2022/10/10 02:50:14;;;;;;;3.83;1.60;;;12.70;51.70;;;;;;5005850;28;20054;-51
2022/10/10 02:52:41;;;;;;;4.97;1.70;;;12.70;51.80;;;;;;5007265;28;20429;-49
2022/10/10 02:55:09;;;;;;;2.47;1.52;;;12.70;51.80;;;;;;5005552;28;20050;-49
2022/10/10 02:57:36;;;;;;;2.20;1.55;;;12.70;51.90;;;;;;5009315;28;20058;-45
2022/10/10 03:00:05;;;;;;;2.80;1.80;;;12.70;51.90;;;;;;5007360;28;20125;-50
2022/10/10 03:02:34;;;;;;;3.42;1.60;;;12.60;51.90;;;;;;5007329;28;20437;-48
2022/10/10 03:05:02;;;;;;;4.35;1.77;;;12.60;51.90;;;;;;5007317;28;20056;-50
2022/10/10 03:07:29;;;;;;;3.70;1.75;;;12.60;52.00;;;;;;5008383;28;20065;-44
2022/10/10 03:09:56;;;;;;;3.00;1.70;;;12.60;52.00;;;;;;5007110;28;20417;-48
2022/10/10 03:12:23;;;;;;;2.42;1.60;;;12.70;52.10;;;;;;5007510;28;20046;-47
2022/10/10 03:14:51;;;;;;;2.95;1.77;;;12.60;52.10;;;;;;5007285;28;20049;-48
2022/10/10 03:17:18;;;;;;;3.08;1.35;;;12.60;52.10;;;;;;5002429;28;20065;-45
2022/10/10 03:19:46;;;;;;;3.83;1.73;;;12.60;52.10;;;;;;5008721;28;20058;-49
2022/10/10 03:22:14;;;;;;;3.50;1.80;;;12.60;52.20;;;;;;5006402;28;20057;-50
2022/10/10 03:24:41;;;;;;;3.88;2.05;;;12.60;52.20;;;;;;5006541;28;20057;-50
2022/10/10 03:27:08;;;;;;;2.83;1.70;;;12.60;52.30;;;;;;5005019;28;20064;-49
2022/10/10 03:29:35;;;;;;;4.70;2.15;;;12.60;52.30;;;;;;5003704;28;20634;-46
2022/10/10 03:32:03;;;;;;;3.92;1.73;;;12.60;52.30;;;;;;5003832;28;20058;-50
2022/10/10 03:34:30;;;;;;;4.35;2.00;;;12.60;52.40;;;;;;5007663;28;20057;-51
2022/10/10 03:36:59;;;;;;;3.25;1.80;;;12.60;52.40;;;;;;5002865;28;20053;-49
2022/10/10 03:39:26;;;;;;;3.67;1.73;;;12.50;52.40;;;;;;5005942;28;20061;-49
2022/10/10 03:41:53;;;;;;;6.40;2.25;;;12.50;52.40;;;;;;5007777;28;20054;-52
2022/10/10 03:44:20;;;;;;;3.88;1.80;;;12.50;52.50;;;;;;5006339;28;20058;-48
2022/10/10 03:46:48;;;;;;;2.25;1.52;;;12.50;52.50;;;;;;5004970;28;20058;-50
2022/10/10 03:49:15;;;;;;;4.28;2.13;;;12.50;52.50;;;;;;5007406;28;20482;-50
2022/10/10 03:51:42;;;;;;;2.20;1.30;;;12.50;52.60;;;;;;5007486;28;20049;-50
2022/10/10 03:54:11;;;;;;;4.97;2.08;;;12.50;52.60;;;;;;5007234;28;20054;-49
2022/10/10 03:56:38;;;;;;;6.05;1.85;;;12.40;52.60;;;;;;5006479;28;20053;-46
2022/10/10 03:59:05;;;;;;;3.97;1.98;;;12.50;52.60;;;;;;5005808;28;20064;-43
2022/10/10 04:01:33;;;;;;;3.33;1.60;;;12.50;52.60;;;;;;5004940;28;20057;-47
2022/10/10 04:04:00;;;;;;;3.70;1.90;;;12.40;52.60;;;;;;5005869;28;20096;-48
2022/10/10 04:06:28;;;;;;;4.43;1.92;;;12.40;52.70;;;;;;5003134;28;20050;-50
2022/10/10 04:08:55;;;;;;;29.88;11.60;;;12.40;52.70;;;;;;5006263;28;20060;-49
2022/10/10 04:11:24;;;;;;;25.65;11.80;;;12.40;52.70;;;;;;5006403;28;20056;-51
2022/10/10 04:13:51;;;;;;;10.98;5.18;;;12.40;52.70;;;;;;5004644;28;20046;-50
2022/10/10 04:16:18;;;;;;;5.30;3.08;;;12.40;52.80;;;;;;5003259;28;20061;-45
2022/10/10 04:18:45;;;;;;;6.88;2.90;;;12.40;52.80;;;;;;5002442;28;20058;-48
2022/10/10 04:21:12;;;;;;;3.30;1.90;;;12.40;52.80;;;;;;5003770;28;20054;-49
2022/10/10 04:23:40;;;;;;;3.83;2.08;;;12.40;52.80;;;;;;5005367;28;20050;-49
2022/10/10 04:26:07;;;;;;;5.80;2.10;;;12.40;52.80;;;;;;5003211;28;20387;-51
2022/10/10 04:28:36;;;;;;;3.60;1.83;;;12.30;52.80;;;;;;5007332;28;20405;-49
2022/10/10 04:31:03;;;;;;;4.60;2.08;;;12.30;52.80;;;;;;5003354;28;20056;-50
2022/10/10 04:33:31;;;;;;;3.17;1.92;;;12.30;52.80;;;;;;4996786;28;20053;-51
2022/10/10 04:35:58;;;;;;;5.03;2.10;;;12.30;52.80;;;;;;5002345;28;20057;-49
2022/10/10 04:38:25;;;;;;;4.45;2.47;;;12.30;52.80;;;;;;5002955;28;20105;-51
2022/10/10 04:40:52;;;;;;;5.22;2.58;;;12.30;52.80;;;;;;5002054;28;20061;-46
2022/10/10 04:43:19;;;;;;;4.13;2.15;;;12.30;52.80;;;;;;5006511;28;20493;-49
2022/10/10 04:45:48;;;;;;;4.20;1.98;;;12.30;52.90;;;;;;5002427;28;20042;-47
2022/10/10 04:48:15;;;;;;;3.08;2.03;;;12.20;52.90;;;;;;5005523;28;20053;-48
2022/10/10 04:50:42;;;;;;;3.25;1.98;;;12.20;53.00;;;;;;5004189;28;20050;-50
2022/10/10 04:53:10;;;;;;;3.10;2.13;;;12.20;53.00;;;;;;5004568;28;20876;-49
2022/10/10 04:55:37;;;;;;;5.63;2.30;;;12.20;53.10;;;;;;5001380;28;20062;-49
2022/10/10 04:58:04;;;;;;;3.88;1.92;;;12.20;53.10;;;;;;5006075;28;20065;-50
2022/10/10 05:00:32;;;;;;;3.90;2.50;;;12.20;53.10;;;;;;5001778;28;20054;-48
2022/10/10 05:03:00;;;;;;;5.82;2.40;;;12.20;53.20;;;;;;5005895;28;20528;-51
2022/10/10 05:05:27;;;;;;;5.40;2.55;;;12.20;53.20;;;;;;5004977;28;20046;-50
2022/10/10 05:07:54;;;;;;;6.18;2.35;;;12.10;53.20;;;;;;5006376;28;20421;-48
2022/10/10 05:10:22;;;;;;;3.72;1.73;;;12.10;53.70;;;;;;5003798;28;20055;-50
2022/10/10 05:12:49;;;;;;;3.80;2.15;;;12.10;53.30;;;;;;5007778;28;20056;-49
2022/10/10 05:15:16;;;;;;;4.05;2.25;;;12.10;53.40;;;;;;5002292;28;20052;-51
2022/10/10 05:17:44;;;;;;;5.43;1.98;;;12.10;53.50;;;;;;5003663;28;20057;-49
2022/10/10 05:20:12;;;;;;;4.40;2.22;;;12.10;53.50;;;;;;4999181;28;20074;-49
2022/10/10 05:22:41;;;;;;;4.35;2.35;;;12.10;54.10;;;;;;5000153;28;20057;-48
2022/10/10 05:25:09;;;;;;;5.95;3.50;;;12.10;53.70;;;;;;5004145;28;21155;-51
2022/10/10 05:27:40;;;;;;;6.25;2.80;;;12.10;53.70;;;;;;5005129;28;20065;-48
2022/10/10 05:30:08;;;;;;;8.23;2.50;;;12.10;53.80;;;;;;5001394;28;20053;-48
2022/10/10 05:32:35;;;;;;;4.13;2.28;;;12.00;53.90;;;;;;5005310;28;20054;-47
2022/10/10 05:35:03;;;;;;;5.20;2.63;;;12.10;54.00;;;;;;5001691;28;20049;-51
2022/10/10 05:37:32;;;;;;;6.18;3.13;;;12.00;53.90;;;;;;5001162;28;20061;-51
2022/10/10 05:40:02;;;;;;;6.90;2.85;;;12.10;54.10;;;;;;5002521;28;20046;-51
2022/10/10 05:42:29;;;;;;;8.00;2.75;;;12.00;54.10;;;;;;5003097;28;20050;-49
2022/10/10 05:44:57;;;;;;;5.72;2.60;;;12.00;54.10;;;;;;5002999;28;20082;-50
2022/10/10 05:47:25;;;;;;;5.07;2.35;;;12.00;54.10;;;;;;5002550;28;20587;-49
2022/10/10 05:49:52;;;;;;;5.95;2.92;;;12.10;54.10;;;;;;5001071;28;20060;-48
2022/10/10 05:52:19;;;;;;;4.18;2.20;;;12.00;54.20;;;;;;5004818;28;20401;-49
2022/10/10 05:54:47;;;;;;;4.63;2.55;;;12.00;54.20;;;;;;5002867;28;20046;-49
2022/10/10 05:57:15;;;;;;;4.28;2.10;;;12.00;54.20;;;;;;5007494;28;20061;-49
2022/10/10 05:59:42;;;;;;;3.88;2.05;;;12.10;54.30;;;;;;5007249;28;20066;-51
2022/10/10 06:02:09;;;;;;;5.43;2.83;;;12.10;54.20;;;;;;5001484;28;20053;-49
2022/10/10 06:04:36;;;;;;;3.72;2.40;;;12.00;54.30;;;;;;5008128;28;20065;-50
2022/10/10 06:07:04;;;;;;;8.18;2.95;;;12.10;54.30;;;;;;5003058;28;20403;-49
2022/10/10 06:09:31;;;;;;;4.93;2.30;;;12.10;54.30;;;;;;5002005;28;20061;-51
2022/10/10 06:11:59;;;;;;;7.47;2.53;;;12.10;54.30;;;;;;5006538;28;20054;-48
2022/10/10 06:14:27;;;;;;;7.45;2.60;;;12.10;54.40;;;;;;5001355;28;20060;-52
2022/10/10 06:16:54;;;;;;;6.28;2.50;;;12.10;54.40;;;;;;5004953;28;20474;-47
2022/10/10 06:19:21;;;;;;;4.03;2.30;;;12.10;54.40;;;;;;5003634;28;20077;-47
2022/10/10 06:21:49;;;;;;;3.92;2.38;;;12.10;54.40;;;;;;5005536;28;20042;-47
2022/10/10 06:24:16;;;;;;;3.30;2.28;;;12.10;54.50;;;;;;5006550;28;20062;-50
2022/10/10 06:26:43;;;;;;;3.20;2.20;;;12.20;54.60;;;;;;5005388;28;20050;-51
2022/10/10 06:29:12;;;;;;;4.00;2.45;;;12.20;54.60;;;;;;5004706;28;20054;-49
2022/10/10 06:31:40;;;;;;;4.88;2.80;;;12.20;54.70;;;;;;5003449;28;20054;-49
2022/10/10 06:34:07;;;;;;;3.92;2.30;;;12.20;54.70;;;;;;5006317;28;20041;-45
2022/10/10 06:36:35;;;;;;;4.05;2.30;;;12.20;54.80;;;;;;5006518;28;20054;-47
2022/10/10 06:39:02;;;;;;;7.43;2.80;;;12.20;55.30;;;;;;5009294;28;20058;-49
2022/10/10 06:41:29;;;;;;;4.80;2.35;;;12.20;54.80;;;;;;5008044;28;20383;-51
2022/10/10 06:43:57;;;;;;;5.22;2.67;;;12.30;54.90;;;;;;5006048;28;20560;-51
2022/10/10 06:46:25;;;;;;;3.60;2.30;;;12.30;55.00;;;;;;5007330;28;20053;-51
2022/10/10 06:48:52;;;;;;;5.60;2.47;;;12.30;55.00;;;;;;5007721;28;20497;-44
2022/10/10 06:51:20;;;;;;;4.55;2.55;;;12.40;55.10;;;;;;5006426;28;20054;-45
2022/10/10 06:53:47;;;;;;;6.30;2.80;;;12.40;55.10;;;;;;5007030;28;20405;-48
2022/10/10 06:56:20;;;;;;;6.65;3.10;;;12.40;55.10;;;;;;5007435;28;20049;-46
2022/10/10 06:58:47;;;;;;;5.75;2.70;;;12.40;55.20;;;;;;5006243;28;20505;-49
2022/10/10 07:01:17;;;;;;;5.85;3.03;;;12.50;55.30;;;;;;5007744;28;20053;-48
2022/10/10 07:03:45;;;;;;;5.53;3.03;;;12.50;55.20;;;;;;5007058;28;20521;-46
2022/10/10 07:06:14;;;;;;;9.93;3.35;;;12.50;55.20;;;;;;5007951;28;20058;-51
2022/10/10 07:08:41;;;;;;;6.05;2.67;;;12.60;55.30;;;;;;5009201;28;20425;-47
2022/10/10 07:11:08;;;;;;;3.92;2.47;;;12.60;55.30;;;;;;5005574;28;20413;-51
2022/10/10 07:13:37;;;;;;;6.93;3.38;;;12.60;55.30;;;;;;5005243;28;20053;-44
2022/10/10 07:16:05;;;;;;;6.55;2.50;;;12.70;55.40;;;;;;5005701;28;20498;-51
2022/10/10 07:18:35;;;;;;;5.07;2.92;;;12.70;55.40;;;;;;5007317;28;20064;-46
2022/10/10 07:21:05;;;;;;;4.97;2.40;;;12.70;55.50;;;;;;5008257;28;20060;-47
2022/10/10 07:23:32;;;;;;;4.30;2.67;;;12.70;55.50;;;;;;5008345;28;20046;-51
2022/10/10 07:26:01;;;;;;;6.20;2.85;;;12.80;55.40;;;;;;5008620;28;20054;-48
2022/10/10 07:28:29;;;;;;;4.60;2.78;;;12.80;55.60;;;;;;5010254;28;20058;-49
2022/10/10 07:31:00;;;;;;;8.18;4.03;;;12.90;55.70;;;;;;5005478;28;20058;-51
2022/10/10 07:33:31;;;;;;;19.45;8.38;;;12.90;55.70;;;;;;5007592;28;20054;-50
2022/10/10 07:35:58;;;;;;;8.43;3.90;;;13.00;55.80;;;;;;5008580;28;20053;-51
2022/10/10 07:38:27;;;;;;;7.05;3.60;;;13.00;55.80;;;;;;5009650;28;20057;-46
2022/10/10 07:40:55;;;;;;;4.63;2.42;;;13.00;55.80;;;;;;5006803;28;20585;-49
2022/10/10 07:43:22;;;;;;;6.30;2.92;;;13.10;55.80;;;;;;5008307;28;20088;-49
2022/10/10 07:45:49;;;;;;;5.72;2.78;;;13.20;55.90;;;;;;5000276;28;20469;-49
2022/10/10 07:48:17;;;;;;;6.68;2.80;;;13.20;55.90;;;;;;5006756;28;20054;-50
2022/10/10 07:50:45;;;;;;;7.68;2.60;;;13.20;56.00;;;;;;5007508;28;20057;-48
2022/10/10 07:53:12;;;;;;;6.75;2.80;;;13.30;56.10;;;;;;5007034;28;20054;-49
2022/10/10 07:55:41;;;;;;;6.13;2.55;;;13.30;56.20;;;;;;5007212;28;20057;-50
2022/10/10 07:58:10;;;;;;;6.63;2.90;;;13.40;56.20;;;;;;5009118;28;20062;-45
2022/10/10 08:00:39;;;;;;;5.53;2.90;;;13.40;56.10;;;;;;5005668;28;20053;-48
2022/10/10 08:03:07;;;;;;;6.32;2.83;;;13.50;56.20;;;;;;5008356;28;20528;-49
2022/10/10 08:05:34;;;;;;;6.90;2.75;;;13.50;56.20;;;;;;5007244;28;20057;-49
2022/10/10 08:08:02;;;;;;;4.32;2.47;;;13.60;56.40;;;;;;5008776;28;20058;-51
2022/10/10 08:10:29;;;;;;;7.50;2.70;;;13.60;56.30;;;;;;5006804;28;20050;-50
2022/10/10 08:12:57;;;;;;;10.27;2.90;;;13.70;56.40;;;;;;5008153;28;20061;-49
2022/10/10 08:15:24;;;;;;;4.55;2.53;;;13.70;56.50;;;;;;5003658;28;20081;-51
2022/10/10 08:17:52;;;;;;;7.13;2.40;;;13.80;56.50;;;;;;5008046;28;20064;-50
2022/10/10 08:20:19;;;;;;;5.55;3.05;;;13.90;56.40;;;;;;5007742;28;20068;-52
2022/10/10 08:22:46;;;;;;;4.45;2.22;;;14.00;56.50;;;;;;5007481;28;20433;-51
2022/10/10 08:25:13;;;;;;;6.68;2.70;;;14.00;56.60;;;;;;5005552;28;20049;-47
2022/10/10 08:27:41;;;;;;;5.07;2.50;;;14.10;56.60;;;;;;5005926;28;20501;-48
2022/10/10 08:30:10;;;;;;;4.75;2.45;;;14.10;56.70;;;;;;5002949;28;20072;-48
2022/10/10 08:32:37;;;;;;;4.53;2.72;;;14.20;56.70;;;;;;5001129;28;20080;-47
2022/10/10 08:35:05;;;;;;;4.88;2.50;;;14.30;56.70;;;;;;5005975;28;20064;-50
2022/10/10 08:37:33;;;;;;;7.05;3.67;;;14.30;56.60;;;;;;5007393;28;20081;-49
2022/10/10 08:40:00;;;;;;;5.72;2.65;;;14.40;56.70;;;;;;5006038;28;20066;-51
2022/10/10 08:42:32;;;;;;;4.32;2.30;;;14.50;56.80;;;;;;5007425;28;20417;-49
2022/10/10 08:45:03;;;;;;;5.07;2.38;;;14.60;56.80;;;;;;5005354;28;20057;-47
2022/10/10 08:47:39;;;;;;;4.15;2.38;;;14.60;56.80;;;;;;5003422;28;20057;-49
2022/10/10 08:50:12;;;;;;;5.55;2.65;;;14.70;56.90;;;;;;5005457;28;20667;-49
2022/10/10 08:52:43;;;;;;;4.22;2.35;;;14.80;56.80;;;;;;5005984;28;20061;-49
2022/10/10 08:55:18;;;;;;;8.10;2.75;;;14.80;57.00;;;;;;5005125;28;20046;-50
2022/10/10 08:57:50;;;;;;;4.90;2.78;;;14.90;57.20;;;;;;5005532;28;20050;-49
2022/10/10 09:00:21;;;;;;;5.55;2.65;;;15.00;57.10;;;;;;5003339;28;20434;-49
2022/10/10 09:02:52;;;;;;;4.65;2.15;;;15.00;57.00;;;;;;5003759;28;20056;-50
2022/10/10 09:05:24;;;;;;;5.03;2.38;;;15.10;57.00;;;;;;5004709;28;20058;-49
2022/10/10 09:08:11;;;;;;;4.43;2.60;;;15.20;57.10;;;;;;5005156;28;20057;-47
2022/10/10 09:10:51;;;;;;;4.80;2.20;;;15.20;57.10;;;;;;5003930;28;20060;-51
2022/10/10 09:13:29;;;;;;;5.82;2.45;;;15.30;57.00;;;;;;5005422;28;20064;-51
2022/10/10 09:16:00;;;;;;;3.55;2.50;;;15.40;57.00;;;;;;5003353;28;20054;-48
2022/10/10 09:18:46;;;;;;;3.92;2.72;;;15.40;56.90;;;;;;5006201;28;20069;-50
2022/10/10 09:21:16;;;;;;;4.72;2.40;;;15.50;57.00;;;;;;5003255;28;20062;-49
2022/10/10 09:23:49;;;;;;;4.47;2.15;;;15.50;56.90;;;;;;5005109;28;20054;-48
2022/10/10 09:26:21;;;;;;;7.57;2.53;;;15.60;56.90;;;;;;5007842;28;20433;-50
2022/10/10 09:28:55;;;;;;;5.78;3.05;;;15.70;56.90;;;;;;5006600;28;20073;-50
2022/10/10 09:31:31;;;;;;;8.18;3.22;;;15.70;56.90;;;;;;5004869;28;20417;-49
2022/10/10 09:34:04;;;;;;;7.40;2.25;;;15.80;57.00;;;;;;5009606;28;20057;-51
2022/10/10 09:36:35;;;;;;;6.05;2.50;;;15.80;56.90;;;;;;5008763;28;20057;-49
2022/10/10 09:39:12;;;;;;;7.25;2.67;;;15.80;56.90;;;;;;5009165;28;20053;-48
2022/10/10 09:41:45;;;;;;;4.40;2.38;;;15.90;56.90;;;;;;5001481;28;20061;-48
2022/10/10 09:44:15;;;;;;;6.00;2.83;;;16.00;57.50;;;;;;5000456;28;20053;-49
2022/10/10 09:46:42;;;;;;;7.32;2.55;;;16.00;56.90;;;;;;4999905;28;20490;-47
2022/10/10 09:49:15;;;;;;;4.90;2.40;;;16.00;56.80;;;;;;5008687;28;20049;-50
2022/10/10 09:51:42;;;;;;;5.00;2.35;;;16.10;56.80;;;;;;4999718;28;20050;-48
2022/10/10 09:54:10;;;;;;;10.18;4.68;;;16.10;56.70;;;;;;5000273;28;20413;-48
2022/10/10 09:56:43;;;;;;;6.05;3.05;;;16.20;56.80;;;;;;5000026;28;20501;-47
2022/10/10 09:59:39;;;;;;;8.15;3.28;;;16.20;56.90;;;;;;5004201;28;20485;-51
2022/10/10 10:02:13;;;;;;;7.00;2.60;;;16.30;56.90;;;;;;4991535;28;20501;-50
2022/10/10 10:04:42;;;;;;;4.07;1.95;;;16.40;56.80;;;;;;5001794;28;20057;-46
2022/10/10 10:07:20;;;;;;;5.38;2.38;;;16.50;56.70;;;;;;4996762;28;20056;-51
2022/10/10 10:09:49;;;;;;;6.68;2.50;;;16.50;56.50;;;;;;4997967;28;20057;-50
2022/10/10 10:12:21;;;;;;;7.15;2.90;;;16.60;56.50;;;;;;4999732;28;20065;-46
2022/10/10 10:14:49;;;;;;;5.70;2.63;;;16.60;56.40;;;;;;5000631;28;20064;-49
2022/10/10 10:17:20;;;;;;;6.88;2.33;;;16.70;56.50;;;;;;5001682;28;20054;-48
2022/10/10 10:19:49;;;;;;;5.63;2.55;;;16.70;56.40;;;;;;5005590;28;20076;-52
2022/10/10 10:22:33;;;;;;;6.20;2.90;;;16.80;56.40;;;;;;5004410;28;20058;-51
2022/10/10 10:25:32;;;;;;;7.05;2.10;;;16.90;56.40;;;;;;5001408;28;20588;-51
2022/10/10 10:28:15;;;;;;;6.25;2.30;;;17.00;56.40;;;;;;5007139;28;20050;-48
2022/10/10 10:30:43;;;;;;;7.35;2.42;;;17.10;56.50;;;;;;4999672;28;20049;-51
2022/10/10 10:33:18;;;;;;;4.28;2.20;;;17.10;56.40;;;;;;4999042;28;20068;-46
2022/10/10 10:35:52;;;;;;;4.45;2.25;;;17.20;56.50;;;;;;4996999;28;20050;-49
2022/10/10 10:38:30;;;;;;;5.43;2.60;;;17.30;56.40;;;;;;5000410;28;20053;-49
2022/10/10 10:41:05;;;;;;;8.57;2.85;;;17.30;56.20;;;;;;4997260;28;20419;-51
2022/10/10 10:43:48;;;;;;;10.95;2.10;;;17.40;56.10;;;;;;4999443;28;20430;-49
2022/10/10 10:46:37;;;;;;;6.97;2.30;;;17.50;55.70;;;;;;5003481;28;20061;-47
2022/10/10 10:49:14;;;;;;;5.15;2.30;;;17.60;55.60;;;;;;4996943;28;20413;-52
2022/10/10 10:52:13;;;;;;;3.75;1.90;;;17.60;55.20;;;;;;4999958;28;20053;-50
2022/10/10 10:54:54;;;;;;;5.15;2.10;;;17.70;55.10;;;;;;4997624;28;20521;-51
2022/10/10 10:57:29;;;;;;;4.65;1.73;;;17.80;55.40;;;;;;5001276;28;20053;-51
2022/10/10 11:00:02;;;;;;;4.40;1.75;;;17.90;53.80;;;;;;5003367;28;20054;-47
2022/10/10 11:02:39;;;;;;;8.18;1.85;;;17.90;53.30;;;;;;5002527;28;20405;-53
2022/10/10 11:05:35;;;;;;;6.78;1.80;;;18.00;53.40;;;;;;5000286;28;20058;-52
2022/10/10 11:08:24;;;;;;;8.80;2.25;;;18.10;53.00;;;;;;4990158;28;20821;-51
2022/10/10 11:11:00;;;;;;;12.82;2.35;;;18.20;53.00;;;;;;5001989;28;20064;-49
2022/10/10 11:13:35;;;;;;;3.42;1.85;;;18.30;52.90;;;;;;5001437;28;20062;-53
2022/10/10 11:16:10;;;;;;;4.38;2.05;;;18.30;52.70;;;;;;4999658;28;20073;-52
2022/10/10 11:18:43;;;;;;;2.75;1.42;;;18.40;52.20;;;;;;5005993;28;20525;-48
2022/10/10 11:21:15;;;;;;;3.88;1.52;;;18.50;51.40;;;;;;5004674;28;20054;-52
2022/10/10 11:23:47;;;;;;;7.50;2.53;;;18.50;51.30;;;;;;4999851;28;20046;-49
2022/10/10 11:26:21;;;;;;;7.47;3.20;;;18.60;51.00;;;;;;5006129;28;20061;-48
2022/10/10 11:28:53;;;;;;;6.78;2.10;;;18.60;50.80;;;;;;5005467;28;20057;-51
2022/10/10 11:31:25;;;;;;;5.05;1.75;;;18.70;50.50;;;;;;5004922;28;20081;-48
2022/10/10 11:33:57;;;;;;;4.22;1.67;;;18.70;50.10;;;;;;5006381;28;20057;-52
2022/10/10 11:36:28;;;;;;;6.55;1.80;;;18.80;49.90;;;;;;5002778;28;20050;-48
2022/10/10 11:39:02;;;;;;;5.65;1.70;;;18.80;49.70;;;;;;5006958;28;20057;-50
2022/10/10 11:41:32;;;;;;;;;;;18.90;49.60;;;;;;5007264;28;20058;-53
2022/10/10 11:44:04;;;;;;;3.55;1.40;;;19.00;50.00;;;;;;5006330;28;19925;-51
2022/10/10 11:46:40;;;;;;;5.63;1.80;;;19.10;49.40;;;;;;5007698;28;20049;-52
2022/10/10 11:49:14;;;;;;;4.63;1.67;;;19.10;49.10;;;;;;5008013;28;20054;-49
2022/10/10 11:51:44;;;;;;;;;;;19.10;49.10;;;;;;5009074;28;20505;-52
2022/10/10 11:54:24;;;;;;;5.85;2.25;;;19.20;49.40;;;;;;5007494;28;19926;-52
2022/10/10 11:56:54;;;;;;;4.65;1.83;;;19.30;48.20;;;;;;5007237;28;20521;-51
2022/10/10 11:59:25;;;;;;;6.63;1.70;;;19.30;48.40;;;;;;5009792;28;20494;-46
2022/10/10 12:01:56;;;;;;;4.45;1.98;;;19.40;49.00;;;;;;5002847;28;20058;-52
2022/10/10 12:04:23;;;;;;;8.32;3.63;;;19.50;49.40;;;;;;5006283;28;20062;-51
2022/10/10 12:06:56;;;;;;;13.57;5.40;;;19.50;49.20;;;;;;5007406;28;20056;-49
2022/10/10 12:09:28;;;;;;;10.73;4.00;;;19.60;49.00;;;;;;5005648;28;20052;-52
2022/10/10 12:11:59;;;;;;;7.10;2.50;;;19.70;48.90;;;;;;5002490;28;20050;-48
2022/10/10 12:14:30;;;;;;;6.72;2.38;;;19.70;49.00;;;;;;5002637;28;20375;-49
2022/10/10 12:16:58;;;;;;;7.70;2.30;;;19.80;49.40;;;;;;5004710;28;20057;-50
2022/10/10 12:19:28;;;;;;;8.70;2.13;;;19.80;49.40;;;;;;5002131;28;20161;-50
2022/10/10 12:21:58;;;;;;;7.15;1.92;;;19.80;49.30;;;;;;5006284;28;20053;-50
2022/10/10 12:24:27;;;;;;;6.15;2.10;;;19.90;49.30;;;;;;5005642;28;20060;-50
2022/10/10 12:27:28;;;;;;;6.45;2.58;;;20.00;49.10;;;;;;5002673;28;20050;-48
2022/10/10 12:30:23;;;;;;;5.63;2.40;;;20.00;48.90;;;;;;5004314;28;20057;-48
2022/10/10 12:32:53;;;;;;;6.90;2.08;;;20.10;49.10;;;;;;5005385;28;20058;-51
2022/10/10 12:35:39;;;;;;;11.68;2.17;;;20.10;49.20;;;;;;5003272;28;20058;-49
2022/10/10 12:38:16;;;;;;;10.88;2.60;;;20.20;49.40;;;;;;5004824;28;20494;-51
2022/10/10 12:41:07;;;;;;;9.60;2.40;;;20.20;49.20;;;;;;5004546;28;20045;-52
2022/10/10 12:43:44;;;;;;;10.20;3.95;;;20.30;49.10;;;;;;5005111;28;20054;-47
2022/10/10 12:46:33;;;;;;;12.15;4.13;;;20.30;49.10;;;;;;5003918;28;20054;-49
2022/10/10 12:49:17;;;;;;;11.27;3.55;;;20.40;49.20;;;;;;5003923;28;20050;-50
2022/10/10 12:51:57;;;;;;;8.60;2.22;;;20.40;49.10;;;;;;5003567;28;20065;-50
2022/10/10 12:54:29;;;;;;;7.03;2.10;;;20.40;49.00;;;;;;5003617;28;20054;-51
2022/10/10 12:57:09;;;;;;;7.43;2.42;;;20.50;48.70;;;;;;5004988;28;20069;-50
2022/10/10 12:59:37;;;;;;;8.45;2.42;;;20.50;48.80;;;;;;5005448;28;20061;-51
2022/10/10 13:02:11;;;;;;;6.30;2.38;;;20.60;49.20;;;;;;5007072;28;20053;-48
2022/10/10 13:04:42;;;;;;;6.22;2.00;;;20.60;49.20;;;;;;5007610;28;20529;-51
2022/10/10 13:07:14;;;;;;;6.45;2.05;;;20.60;49.40;;;;;;5008421;28;20053;-49